createdAt,value
2019-02-26T00:00:47.339Z,56.21
2019-02-26T00:01:50.472Z,56.62
2019-02-26T00:02:50.649Z,56.21
2019-02-26T00:03:46.327Z,56.41
2019-02-26T00:04:46.306Z,56.62
2019-02-26T00:05:49.834Z,56.62
2019-02-26T00:06:49.026Z,56.41
2019-02-26T00:07:49.038Z,56.72
2019-02-26T00:08:49.232Z,56.62
2019-02-26T00:09:46.251Z,56.85
2019-02-26T00:10:46.268Z,56.54
2019-02-26T00:11:46.231Z,56.82
2019-02-26T00:12:46.219Z,56.44
2019-02-26T00:13:48.064Z,56.85
2019-02-26T00:14:47.875Z,56.65
2019-02-26T00:15:48.318Z,56.65
2019-02-26T00:16:46.750Z,56.52
2019-02-26T00:17:48.374Z,56.93
2019-02-26T00:18:46.160Z,56.95
2019-02-26T00:19:46.152Z,57.16
2019-02-26T00:20:46.131Z,56.95
2019-02-26T00:21:47.946Z,57.06
2019-02-26T00:22:46.109Z,56.95
2019-02-26T00:23:46.624Z,57.37
2019-02-26T00:24:46.636Z,57.26
2019-02-26T00:25:46.078Z,57.06
2019-02-26T00:26:46.078Z,57.06
2019-02-26T00:27:47.638Z,56.95
2019-02-26T00:28:46.038Z,57.37
2019-02-26T00:29:46.466Z,56.75
2019-02-26T00:30:46.020Z,56.95
2019-02-26T00:31:46.926Z,58.40
2019-02-26T00:32:45.999Z,57.81
2019-02-26T00:33:46.008Z,57.91
2019-02-26T00:34:45.979Z,57.91
2019-02-26T00:35:47.678Z,58.09
2019-02-26T00:36:45.968Z,58.01
2019-02-26T00:37:46.684Z,57.70
2019-02-26T00:38:45.939Z,58.32
2019-02-26T00:39:47.502Z,58.01
2019-02-26T00:40:45.904Z,58.22
2019-02-26T00:41:49.317Z,58.53
2019-02-26T00:42:50.249Z,58.42
2019-02-26T00:43:46.866Z,58.11
2019-02-26T00:44:45.870Z,58.73
2019-02-26T00:45:45.900Z,58.55
2019-02-26T00:46:45.856Z,58.22
2019-02-26T00:47:46.285Z,58.63
2019-02-26T00:48:45.817Z,58.55
2019-02-26T00:49:46.304Z,58.45
2019-02-26T00:50:45.788Z,58.53
2019-02-26T00:51:47.887Z,58.86
2019-02-26T00:52:45.765Z,58.55
2019-02-26T00:53:48.862Z,59.07
2019-02-26T00:54:46.754Z,58.65
2019-02-26T00:55:45.739Z,58.86
2019-02-26T00:56:45.742Z,58.97
2019-02-26T00:57:45.711Z,58.76
2019-02-26T00:58:46.316Z,58.76
2019-02-26T00:59:46.410Z,59.30
2019-02-26T01:00:45.686Z,59.82
2019-02-26T01:01:47.911Z,59.69
2019-02-26T01:02:45.663Z,59.69
2019-02-26T01:03:47.111Z,59.79
2019-02-26T01:04:46.756Z,59.82
2019-02-26T01:05:45.630Z,59.51
2019-02-26T01:06:45.644Z,59.41
2019-02-26T01:07:47.420Z,59.30
2019-02-26T01:08:47.085Z,60.13
2019-02-26T01:09:45.578Z,60.23
2019-02-26T01:10:45.856Z,59.92
2019-02-26T01:11:47.536Z,59.92
2019-02-26T01:12:45.546Z,60.64
2019-02-26T01:13:45.551Z,60.64
2019-02-26T01:14:46.349Z,60.44
2019-02-26T01:15:45.505Z,60.44
2019-02-26T01:16:46.092Z,60.75
2019-02-26T01:17:45.487Z,60.57
2019-02-26T01:18:47.235Z,60.23
2019-02-26T01:19:45.466Z,60.75
2019-02-26T01:20:48.309Z,60.85
2019-02-26T01:21:45.457Z,61.08
2019-02-26T01:22:45.648Z,60.88
2019-02-26T01:23:45.423Z,61.19
2019-02-26T01:24:45.410Z,60.57
2019-02-26T01:25:45.390Z,60.85
2019-02-26T01:26:45.402Z,61.26
2019-02-26T01:27:46.005Z,61.26
2019-02-26T01:28:48.329Z,61.80
2019-02-26T01:29:47.345Z,61.80
2019-02-26T01:30:45.340Z,61.88
2019-02-26T01:31:45.344Z,61.68
2019-02-26T01:32:45.318Z,61.78
2019-02-26T01:33:46.764Z,61.47
2019-02-26T01:34:47.278Z,61.36
2019-02-26T01:35:45.292Z,61.44
2019-02-26T01:36:47.229Z,60.75
2019-02-26T01:37:45.257Z,61.33
2019-02-26T01:38:46.360Z,60.72
2019-02-26T01:39:47.080Z,60.51
2019-02-26T01:40:46.543Z,61.78
2019-02-26T01:41:46.066Z,61.44
2019-02-26T01:42:49.767Z,61.16
2019-02-26T01:43:46.190Z,61.54
2019-02-26T01:44:45.189Z,61.26
2019-02-26T01:45:46.174Z,61.54
2019-02-26T01:46:45.182Z,61.26
2019-02-26T01:47:47.717Z,61.78
2019-02-26T01:48:45.138Z,61.36
2019-02-26T01:49:46.542Z,61.68
2019-02-26T01:50:45.120Z,61.57
2019-02-26T01:51:47.476Z,61.26
2019-02-26T01:52:45.097Z,61.57
2019-02-26T01:53:46.923Z,61.78
2019-02-26T01:54:45.070Z,61.78
2019-02-26T01:55:45.917Z,62.60
2019-02-26T01:56:45.098Z,62.19
2019-02-26T01:57:45.034Z,62.19
2019-02-26T01:58:45.024Z,61.98
2019-02-26T01:59:45.014Z,62.29
2019-02-26T02:00:45.002Z,61.36
2019-02-26T02:01:46.526Z,61.78
2019-02-26T02:02:44.994Z,61.88
2019-02-26T02:03:47.001Z,61.78
2019-02-26T02:04:44.976Z,62.01
2019-02-26T02:05:45.829Z,61.98
2019-02-26T02:06:44.954Z,62.08
2019-02-26T02:07:48.481Z,62.43
2019-02-26T02:08:45.891Z,62.63
2019-02-26T02:09:48.676Z,63.15
2019-02-26T02:10:45.886Z,63.04
2019-02-26T02:11:44.916Z,62.84
2019-02-26T02:12:44.868Z,62.84
2019-02-26T02:13:44.856Z,63.04
2019-02-26T02:14:44.847Z,62.74
2019-02-26T02:15:46.510Z,63.97
2019-02-26T02:16:44.836Z,63.87
2019-02-26T02:17:44.817Z,62.74
2019-02-26T02:18:48.074Z,63.25
2019-02-26T02:19:44.794Z,63.04
2019-02-26T02:20:44.776Z,63.04
2019-02-26T02:21:44.782Z,63.39
2019-02-26T02:22:44.758Z,63.18
2019-02-26T02:23:46.435Z,63.15
2019-02-26T02:24:46.714Z,63.77
2019-02-26T02:25:45.666Z,63.25
2019-02-26T02:26:47.451Z,63.77
2019-02-26T02:27:47.515Z,63.25
2019-02-26T02:28:45.704Z,63.46
2019-02-26T02:29:46.122Z,64.07
2019-02-26T02:30:44.680Z,64.11
2019-02-26T02:31:44.651Z,64.21
2019-02-26T02:32:47.209Z,63.90
2019-02-26T02:33:45.626Z,64.21
2019-02-26T02:34:44.616Z,64.83
2019-02-26T02:35:44.606Z,64.93
2019-02-26T02:36:44.597Z,64.52
2019-02-26T02:37:44.716Z,64.83
2019-02-26T02:38:44.589Z,64.73
2019-02-26T02:39:44.583Z,64.73
2019-02-26T02:40:46.293Z,64.62
2019-02-26T02:41:45.437Z,65.14
2019-02-26T02:42:48.414Z,65.34
2019-02-26T02:43:44.523Z,65.24
2019-02-26T02:44:46.736Z,65.24
2019-02-26T02:45:44.515Z,65.45
2019-02-26T02:46:46.293Z,65.24
2019-02-26T02:47:44.500Z,65.24
2019-02-26T02:48:44.465Z,65.55
2019-02-26T02:49:44.469Z,65.45
2019-02-26T02:50:44.451Z,65.45
2019-02-26T02:51:44.435Z,65.34
2019-02-26T02:52:44.434Z,65.03
2019-02-26T02:53:45.270Z,66.17
2019-02-26T02:54:47.010Z,65.42
2019-02-26T02:55:47.008Z,65.76
2019-02-26T02:56:44.458Z,66.07
2019-02-26T02:57:46.488Z,65.55
2019-02-26T02:58:46.886Z,65.34
2019-02-26T02:59:44.341Z,65.55
2019-02-26T03:00:46.105Z,65.76
2019-02-26T03:01:45.796Z,66.10
2019-02-26T03:02:46.676Z,66.17
2019-02-26T03:03:47.629Z,66.27
2019-02-26T03:04:44.281Z,65.79
2019-02-26T03:05:45.916Z,66.30
2019-02-26T03:06:44.260Z,66.30
2019-02-26T03:07:47.539Z,66.72
2019-02-26T03:08:45.230Z,66.72
2019-02-26T03:09:45.779Z,67.34
2019-02-26T03:10:45.027Z,66.58
2019-02-26T03:11:46.429Z,66.30
2019-02-26T03:12:48.695Z,66.48
2019-02-26T03:13:45.768Z,66.79
2019-02-26T03:14:44.584Z,66.61
2019-02-26T03:15:44.157Z,66.58
2019-02-26T03:16:45.570Z,66.48
2019-02-26T03:17:44.139Z,67.03
2019-02-26T03:18:44.124Z,66.82
2019-02-26T03:19:44.113Z,67.03
2019-02-26T03:20:44.100Z,67.24
2019-02-26T03:21:45.421Z,67.03
2019-02-26T03:22:48.765Z,67.24
2019-02-26T03:23:45.592Z,67.30
2019-02-26T03:24:44.080Z,66.69
2019-02-26T03:25:44.539Z,67.30
2019-02-26T03:26:44.031Z,66.89
2019-02-26T03:27:44.046Z,67.13
2019-02-26T03:28:44.647Z,67.21
2019-02-26T03:29:45.054Z,67.03
2019-02-26T03:30:44.660Z,68.16
2019-02-26T03:31:47.055Z,68.03
2019-02-26T03:32:47.236Z,67.65
2019-02-26T03:33:44.953Z,67.65
2019-02-26T03:34:43.945Z,68.06
2019-02-26T03:35:43.932Z,68.06
2019-02-26T03:36:45.772Z,67.96
2019-02-26T03:37:43.948Z,68.27
2019-02-26T03:38:46.434Z,68.16
2019-02-26T03:39:43.898Z,68.16
2019-02-26T03:40:43.872Z,67.96
2019-02-26T03:41:45.819Z,68.06
2019-02-26T03:42:46.091Z,68.16
2019-02-26T03:43:43.842Z,68.16
2019-02-26T03:44:46.066Z,67.96
2019-02-26T03:45:47.315Z,68.06
2019-02-26T03:46:43.808Z,67.65
2019-02-26T03:47:43.821Z,67.75
2019-02-26T03:48:43.786Z,68.06
2019-02-26T03:49:43.777Z,68.27
2019-02-26T03:50:44.643Z,67.96
2019-02-26T03:51:43.758Z,68.16
2019-02-26T03:52:43.767Z,68.06
2019-02-26T03:53:44.167Z,67.96
2019-02-26T03:54:45.960Z,68.16
2019-02-26T03:55:44.022Z,68.27
2019-02-26T03:56:43.694Z,68.06
2019-02-26T03:57:47.505Z,68.06
2019-02-26T03:58:44.672Z,68.27
2019-02-26T03:59:43.680Z,67.54
2019-02-26T04:00:44.818Z,67.85
2019-02-26T04:01:43.638Z,68.16
2019-02-26T04:02:47.690Z,68.16
2019-02-26T04:03:43.622Z,68.27
2019-02-26T04:04:45.852Z,68.16
2019-02-26T04:05:44.600Z,68.06
2019-02-26T04:06:46.764Z,68.16
2019-02-26T04:07:43.594Z,68.16
2019-02-26T04:08:46.189Z,68.61
2019-02-26T04:09:44.397Z,68.61
2019-02-26T04:10:45.630Z,68.51
2019-02-26T04:11:45.563Z,68.61
2019-02-26T04:12:45.031Z,68.61
2019-02-26T04:13:46.095Z,68.92
2019-02-26T04:14:43.501Z,68.92
2019-02-26T04:15:43.493Z,68.51
2019-02-26T04:16:43.738Z,68.51
2019-02-26T04:17:43.486Z,68.71
2019-02-26T04:18:43.446Z,68.71
2019-02-26T04:19:44.494Z,68.82
2019-02-26T04:20:44.397Z,68.40
2019-02-26T04:21:43.418Z,68.40
2019-02-26T04:22:48.892Z,68.40
2019-02-26T04:23:46.520Z,68.51
2019-02-26T04:24:43.389Z,68.51
2019-02-26T04:25:43.377Z,68.71
2019-02-26T04:26:43.360Z,69.23
2019-02-26T04:27:44.163Z,68.61
2019-02-26T04:28:44.972Z,68.40
2019-02-26T04:29:44.122Z,69.33
2019-02-26T04:30:44.625Z,69.02
2019-02-26T04:31:44.591Z,69.12
2019-02-26T04:32:43.534Z,68.82
2019-02-26T04:33:43.288Z,69.23
2019-02-26T04:34:43.270Z,68.82
2019-02-26T04:35:44.893Z,69.43
2019-02-26T04:36:44.828Z,68.82
2019-02-26T04:37:43.251Z,69.12
2019-02-26T04:38:43.803Z,69.33
2019-02-26T04:39:44.967Z,69.33
2019-02-26T04:40:43.201Z,69.33
2019-02-26T04:41:43.189Z,69.33
2019-02-26T04:42:45.956Z,69.12
2019-02-26T04:43:43.173Z,69.12
2019-02-26T04:44:43.172Z,69.23
2019-02-26T04:45:43.147Z,69.33
2019-02-26T04:46:43.138Z,69.23
2019-02-26T04:47:45.961Z,69.12
2019-02-26T04:48:44.118Z,69.43
2019-02-26T04:49:43.217Z,69.33
2019-02-26T04:50:44.529Z,69.23
2019-02-26T04:51:45.042Z,69.85
2019-02-26T04:52:43.627Z,70.26
2019-02-26T04:53:43.077Z,68.92
2019-02-26T04:54:43.050Z,69.23
2019-02-26T04:55:44.922Z,69.43
2019-02-26T04:56:45.103Z,68.92
2019-02-26T04:57:45.516Z,69.23
2019-02-26T04:58:45.906Z,69.23
2019-02-26T04:59:43.821Z,69.74
2019-02-26T05:00:42.978Z,70.26
2019-02-26T05:01:44.638Z,68.92
2019-02-26T05:02:42.954Z,69.85
2019-02-26T05:03:42.976Z,69.85
2019-02-26T05:04:42.931Z,69.33
2019-02-26T05:05:42.933Z,69.23
2019-02-26T05:06:42.907Z,69.23
2019-02-26T05:07:46.532Z,69.74
2019-02-26T05:08:43.000Z,69.74
2019-02-26T05:09:42.882Z,69.74
2019-02-26T05:10:42.866Z,69.88
2019-02-26T05:11:42.851Z,69.64
2019-02-26T05:12:42.846Z,69.74
2019-02-26T05:13:42.849Z,69.54
2019-02-26T05:14:42.829Z,69.06
2019-02-26T05:15:43.658Z,69.33
2019-02-26T05:16:42.795Z,69.78
2019-02-26T05:17:42.785Z,69.54
2019-02-26T05:18:44.402Z,69.85
2019-02-26T05:19:46.101Z,70.26
2019-02-26T05:20:48.102Z,70.47
2019-02-26T05:21:42.743Z,70.47
2019-02-26T05:22:42.730Z,70.26
2019-02-26T05:23:42.735Z,70.26
2019-02-26T05:24:44.805Z,70.26
2019-02-26T05:25:44.815Z,69.02
2019-02-26T05:26:42.686Z,69.85
2019-02-26T05:27:45.238Z,69.74
2019-02-26T05:28:46.142Z,69.78
2019-02-26T05:29:43.419Z,69.57
2019-02-26T05:30:43.867Z,69.78
2019-02-26T05:31:43.215Z,69.78
2019-02-26T05:32:42.614Z,70.09
2019-02-26T05:33:42.626Z,69.67
2019-02-26T05:34:45.154Z,69.57
2019-02-26T05:35:45.645Z,69.57
2019-02-26T05:36:45.442Z,69.88
2019-02-26T05:37:42.564Z,69.37
2019-02-26T05:38:42.567Z,69.88
2019-02-26T05:39:43.162Z,69.98
2019-02-26T05:40:43.355Z,70.09
2019-02-26T05:41:42.521Z,69.43
2019-02-26T05:42:42.508Z,69.78
2019-02-26T05:43:42.509Z,70.29
2019-02-26T05:44:42.474Z,69.57
2019-02-26T05:45:42.477Z,69.98
2019-02-26T05:46:42.459Z,69.78
2019-02-26T05:47:43.636Z,69.95
2019-02-26T05:48:43.024Z,69.88
2019-02-26T05:49:43.801Z,70.50
2019-02-26T05:50:44.771Z,69.78
2019-02-26T05:51:42.398Z,70.09
2019-02-26T05:52:42.395Z,70.50
2019-02-26T05:53:42.399Z,70.50
2019-02-26T05:54:42.372Z,70.50
2019-02-26T05:55:47.079Z,69.88
2019-02-26T05:56:44.140Z,69.57
2019-02-26T05:57:42.333Z,69.88
2019-02-26T05:58:46.393Z,69.98
2019-02-26T05:59:42.322Z,70.19
2019-02-26T06:00:42.307Z,69.98
2019-02-26T06:01:43.795Z,69.88
2019-02-26T06:02:44.878Z,69.78
2019-02-26T06:03:45.726Z,70.50
2019-02-26T06:04:44.516Z,70.61
2019-02-26T06:05:45.740Z,69.88
2019-02-26T06:06:42.230Z,70.81
2019-02-26T06:07:42.224Z,70.92
2019-02-26T06:08:42.233Z,69.88
2019-02-26T06:09:42.196Z,70.09
2019-02-26T06:10:42.194Z,70.61
2019-02-26T06:11:46.910Z,71.26
2019-02-26T06:12:44.622Z,70.22
2019-02-26T06:13:43.215Z,70.92
2019-02-26T06:14:42.150Z,70.61
2019-02-26T06:15:42.143Z,70.92
2019-02-26T06:16:43.225Z,71.53
2019-02-26T06:17:45.228Z,70.95
2019-02-26T06:18:44.048Z,70.81
2019-02-26T06:19:42.932Z,70.95
2019-02-26T06:20:42.074Z,71.12
2019-02-26T06:21:44.237Z,71.78
2019-02-26T06:22:42.079Z,70.95
2019-02-26T06:23:43.201Z,70.95
2019-02-26T06:24:42.057Z,70.64
2019-02-26T06:25:42.022Z,70.74
2019-02-26T06:26:43.196Z,70.09
2019-02-26T06:27:41.999Z,71.43
2019-02-26T06:28:43.505Z,70.74
2019-02-26T06:29:41.996Z,70.95
2019-02-26T06:30:41.967Z,70.92
2019-02-26T06:31:43.006Z,70.61
2019-02-26T06:32:44.438Z,71.43
2019-02-26T06:33:43.676Z,70.71
2019-02-26T06:34:41.940Z,70.95
2019-02-26T06:35:42.857Z,70.64
2019-02-26T06:36:42.481Z,70.81
2019-02-26T06:37:41.884Z,70.95
2019-02-26T06:38:41.878Z,70.74
2019-02-26T06:39:41.886Z,70.71
2019-02-26T06:40:45.884Z,70.95
2019-02-26T06:41:44.423Z,71.57
2019-02-26T06:42:41.830Z,70.74
2019-02-26T06:43:45.025Z,70.12
2019-02-26T06:44:43.820Z,70.29
2019-02-26T06:45:43.582Z,70.32
2019-02-26T06:46:41.794Z,71.22
2019-02-26T06:47:41.771Z,70.74
2019-02-26T06:48:41.763Z,70.71
2019-02-26T06:49:43.246Z,70.61
2019-02-26T06:50:43.508Z,70.32
2019-02-26T06:51:42.979Z,70.84
2019-02-26T06:52:43.046Z,70.01
2019-02-26T06:53:45.040Z,70.81
2019-02-26T06:54:47.819Z,70.74
2019-02-26T06:55:42.682Z,70.12
2019-02-26T06:56:43.894Z,70.74
2019-02-26T06:57:44.011Z,70.74
2019-02-26T06:58:43.249Z,70.95
2019-02-26T06:59:41.670Z,70.84
2019-02-26T07:00:43.638Z,70.64
2019-02-26T07:01:41.952Z,70.84
2019-02-26T07:02:45.490Z,71.15
2019-02-26T07:03:41.592Z,70.74
2019-02-26T07:04:41.607Z,71.43
2019-02-26T07:05:42.383Z,71.15
2019-02-26T07:06:41.560Z,70.71
2019-02-26T07:07:41.569Z,70.19
2019-02-26T07:08:42.099Z,69.98
2019-02-26T07:09:43.778Z,69.67
2019-02-26T07:10:41.512Z,70.71
2019-02-26T07:11:41.511Z,69.74
2019-02-26T07:12:43.124Z,70.06
2019-02-26T07:13:43.975Z,69.64
2019-02-26T07:14:41.505Z,69.85
2019-02-26T07:15:42.945Z,69.85
2019-02-26T07:16:41.444Z,69.85
2019-02-26T07:17:42.991Z,70.16
2019-02-26T07:18:41.425Z,69.33
2019-02-26T07:19:41.435Z,69.85
2019-02-26T07:20:46.518Z,70.67
2019-02-26T07:21:43.427Z,69.95
2019-02-26T07:22:42.013Z,69.64
2019-02-26T07:23:41.372Z,69.33
2019-02-26T07:24:43.648Z,69.33
2019-02-26T07:25:43.886Z,69.23
2019-02-26T07:26:43.623Z,70.16
2019-02-26T07:27:41.324Z,69.64
2019-02-26T07:28:42.360Z,69.54
2019-02-26T07:29:44.379Z,69.33
2019-02-26T07:30:42.855Z,69.23
2019-02-26T07:31:41.299Z,69.43
2019-02-26T07:32:43.166Z,69.33
2019-02-26T07:33:41.256Z,69.26
2019-02-26T07:34:42.826Z,70.19
2019-02-26T07:35:41.237Z,69.88
2019-02-26T07:36:43.169Z,69.78
2019-02-26T07:37:41.232Z,69.64
2019-02-26T07:38:43.820Z,69.64
2019-02-26T07:39:41.951Z,69.33
2019-02-26T07:40:41.176Z,69.02
2019-02-26T07:41:42.271Z,69.09
2019-02-26T07:42:41.938Z,68.68
2019-02-26T07:43:43.951Z,68.58
2019-02-26T07:44:42.158Z,69.27
2019-02-26T07:45:41.120Z,68.85
2019-02-26T07:46:42.559Z,68.44
2019-02-26T07:47:41.096Z,66.97
2019-02-26T07:48:41.086Z,67.38
2019-02-26T07:49:41.113Z,66.83
2019-02-26T07:50:45.372Z,66.63
2019-02-26T07:51:42.893Z,65.46
2019-02-26T07:52:41.039Z,66.18
2019-02-26T07:53:44.410Z,64.74
2019-02-26T07:54:42.838Z,64.53
2019-02-26T07:55:42.374Z,65.05
2019-02-26T07:56:40.996Z,65.15
2019-02-26T07:57:43.015Z,65.25
2019-02-26T07:58:42.959Z,64.64
2019-02-26T07:59:42.576Z,65.15
2019-02-26T08:00:42.900Z,65.05
2019-02-26T08:01:43.112Z,64.61
2019-02-26T08:02:40.925Z,65.25
2019-02-26T08:03:42.060Z,65.46
2019-02-26T08:04:41.847Z,65.46
2019-02-26T08:05:40.896Z,65.15
2019-02-26T08:06:40.883Z,65.56
2019-02-26T08:07:40.883Z,65.53
2019-02-26T08:08:42.061Z,65.15
2019-02-26T08:09:40.866Z,65.67
2019-02-26T08:10:42.795Z,65.25
2019-02-26T08:11:42.128Z,65.53
2019-02-26T08:12:42.569Z,65.22
2019-02-26T08:13:40.805Z,65.53
2019-02-26T08:14:42.776Z,65.53
2019-02-26T08:15:40.808Z,65.43
2019-02-26T08:16:40.774Z,64.58
2019-02-26T08:17:40.760Z,64.75
2019-02-26T08:18:40.752Z,64.24
2019-02-26T08:19:43.710Z,63.82
2019-02-26T08:20:41.728Z,63.10
2019-02-26T08:21:40.720Z,64.24
2019-02-26T08:22:40.715Z,63.82
2019-02-26T08:23:41.390Z,64.03
2019-02-26T08:24:40.759Z,63.93
2019-02-26T08:25:40.682Z,64.03
2019-02-26T08:26:42.867Z,63.62
2019-02-26T08:27:40.659Z,64.14
2019-02-26T08:28:41.965Z,64.54
2019-02-26T08:29:40.660Z,64.14
2019-02-26T08:30:44.473Z,63.93
2019-02-26T08:31:42.626Z,64.44
2019-02-26T08:32:40.602Z,64.03
2019-02-26T08:33:40.603Z,64.03
2019-02-26T08:34:40.597Z,64.11
2019-02-26T08:35:40.560Z,63.59
2019-02-26T08:36:40.545Z,62.97
2019-02-26T08:37:40.550Z,63.18
2019-02-26T08:38:40.536Z,63.39
2019-02-26T08:39:40.541Z,63.69
2019-02-26T08:40:40.507Z,63.07
2019-02-26T08:41:40.488Z,64.21
2019-02-26T08:42:40.480Z,63.07
2019-02-26T08:43:44.161Z,63.07
2019-02-26T08:44:41.480Z,63.59
2019-02-26T08:45:40.458Z,63.76
2019-02-26T08:46:42.718Z,63.15
2019-02-26T08:47:40.425Z,63.67
2019-02-26T08:48:41.304Z,62.33
2019-02-26T08:49:42.580Z,62.09
2019-02-26T08:50:42.278Z,62.19
2019-02-26T08:51:40.383Z,62.60
2019-02-26T08:52:40.366Z,62.19
2019-02-26T08:53:40.356Z,62.60
2019-02-26T08:54:40.375Z,61.86
2019-02-26T08:55:40.332Z,62.16
2019-02-26T08:56:40.950Z,61.76
2019-02-26T08:57:40.308Z,62.09
2019-02-26T08:58:41.124Z,62.71
2019-02-26T08:59:42.084Z,62.37
2019-02-26T09:00:40.277Z,61.99
2019-02-26T09:01:40.363Z,62.71
2019-02-26T09:02:41.206Z,62.30
2019-02-26T09:03:41.021Z,62.60
2019-02-26T09:04:42.286Z,62.81
2019-02-26T09:05:40.250Z,62.71
2019-02-26T09:06:40.208Z,62.30
2019-02-26T09:07:40.842Z,62.30
2019-02-26T09:08:41.217Z,62.19
2019-02-26T09:09:40.181Z,62.71
2019-02-26T09:10:41.322Z,63.12
2019-02-26T09:11:40.153Z,63.02
2019-02-26T09:12:41.897Z,62.71
2019-02-26T09:13:41.275Z,63.12
2019-02-26T09:14:40.876Z,62.27
2019-02-26T09:15:41.375Z,62.37
2019-02-26T09:16:40.104Z,61.86
2019-02-26T09:17:42.065Z,62.48
2019-02-26T09:18:40.575Z,62.19
2019-02-26T09:19:40.087Z,62.16
2019-02-26T09:20:40.080Z,62.37
2019-02-26T09:21:42.589Z,62.06
2019-02-26T09:22:40.536Z,61.86
2019-02-26T09:23:40.045Z,61.96
2019-02-26T09:24:40.012Z,61.65
2019-02-26T09:25:40.020Z,61.35
2019-02-26T09:26:39.994Z,61.76
2019-02-26T09:27:43.017Z,61.55
2019-02-26T09:28:39.965Z,61.86
2019-02-26T09:29:43.929Z,61.96
2019-02-26T09:30:40.962Z,62.06
2019-02-26T09:31:39.930Z,61.86
2019-02-26T09:32:42.063Z,62.58
2019-02-26T09:33:40.931Z,62.48
2019-02-26T09:34:40.029Z,62.27
2019-02-26T09:35:39.908Z,61.96
2019-02-26T09:36:39.878Z,62.16
2019-02-26T09:37:39.879Z,62.06
2019-02-26T09:38:41.781Z,62.06
2019-02-26T09:39:39.833Z,62.48
2019-02-26T09:40:39.859Z,62.16
2019-02-26T09:41:40.398Z,62.37
2019-02-26T09:42:39.809Z,62.37
2019-02-26T09:43:41.028Z,62.34
2019-02-26T09:44:39.793Z,62.11
2019-02-26T09:45:41.735Z,61.70
2019-02-26T09:46:41.935Z,61.18
2019-02-26T09:47:39.765Z,61.49
2019-02-26T09:48:41.112Z,60.03
2019-02-26T09:49:39.726Z,60.16
2019-02-26T09:50:41.337Z,60.36
2019-02-26T09:51:40.087Z,60.64
2019-02-26T09:52:39.688Z,60.75
2019-02-26T09:53:39.680Z,60.44
2019-02-26T09:54:42.657Z,60.51
2019-02-26T09:55:39.678Z,59.89
2019-02-26T09:56:39.646Z,58.87
2019-02-26T09:57:39.642Z,59.59
2019-02-26T09:58:40.356Z,58.97
2019-02-26T09:59:39.614Z,59.87
2019-02-26T10:00:40.487Z,58.33
2019-02-26T10:01:40.790Z,58.44
2019-02-26T10:02:40.139Z,58.84
2019-02-26T10:03:41.323Z,58.61
2019-02-26T10:04:39.558Z,59.02
2019-02-26T10:05:39.556Z,58.20
2019-02-26T10:06:40.714Z,58.20
2019-02-26T10:07:39.517Z,58.30
2019-02-26T10:08:39.508Z,57.79
2019-02-26T10:09:40.740Z,57.79
2019-02-26T10:10:40.510Z,58.17
2019-02-26T10:11:41.911Z,57.46
2019-02-26T10:12:39.467Z,57.76
2019-02-26T10:13:41.479Z,57.97
2019-02-26T10:14:39.440Z,57.15
2019-02-26T10:15:40.616Z,56.95
2019-02-26T10:16:39.423Z,57.97
2019-02-26T10:17:40.793Z,57.12
2019-02-26T10:18:39.394Z,56.33
2019-02-26T10:19:41.032Z,56.82
2019-02-26T10:20:39.403Z,56.82
2019-02-26T10:21:40.060Z,56.69
2019-02-26T10:22:40.469Z,56.79
2019-02-26T10:23:39.343Z,56.71
2019-02-26T10:24:40.411Z,56.61
2019-02-26T10:25:39.344Z,56.51
2019-02-26T10:26:41.094Z,56.61
2019-02-26T10:27:41.270Z,56.41
2019-02-26T10:28:40.338Z,56.79
2019-02-26T10:29:41.894Z,56.48
2019-02-26T10:30:41.589Z,56.28
2019-02-26T10:31:41.082Z,56.07
2019-02-26T10:32:39.232Z,55.94
2019-02-26T10:33:41.127Z,55.23
2019-02-26T10:34:39.216Z,55.30
2019-02-26T10:35:42.032Z,53.95
2019-02-26T10:36:43.442Z,54.16
2019-02-26T10:37:41.024Z,54.16
2019-02-26T10:38:39.166Z,53.98
2019-02-26T10:39:39.164Z,53.75
2019-02-26T10:40:50.691Z,55.13
2019-02-26T10:41:42.266Z,55.43
2019-02-26T10:42:39.938Z,55.56
2019-02-26T10:43:40.022Z,55.87
2019-02-26T10:44:39.110Z,56.07
2019-02-26T10:45:44.141Z,56.92
2019-02-26T10:46:42.724Z,56.71
2019-02-26T10:47:39.069Z,56.82
2019-02-26T10:48:41.060Z,56.38
2019-02-26T10:49:39.047Z,56.59
2019-02-26T10:50:42.239Z,56.18
2019-02-26T10:51:42.393Z,56.38
2019-02-26T10:52:39.010Z,56.25
2019-02-26T10:53:39.002Z,55.82
2019-02-26T10:54:40.555Z,55.18
2019-02-26T10:55:41.695Z,55.18
2019-02-26T10:56:41.710Z,55.58
2019-02-26T10:57:39.006Z,54.77
2019-02-26T10:58:39.019Z,54.87
2019-02-26T10:59:41.805Z,54.54
2019-02-26T11:00:38.918Z,54.03
2019-02-26T11:01:38.938Z,55.08
2019-02-26T11:02:40.835Z,55.49
2019-02-26T11:03:41.643Z,54.97
2019-02-26T11:04:41.844Z,55.26
2019-02-26T11:05:39.862Z,55.05
2019-02-26T11:06:41.742Z,53.70
2019-02-26T11:07:40.094Z,54.00
2019-02-26T11:08:38.830Z,55.15
2019-02-26T11:09:38.832Z,54.95
2019-02-26T11:10:41.801Z,54.64
2019-02-26T11:11:39.998Z,55.38
2019-02-26T11:12:38.792Z,55.69
2019-02-26T11:13:40.676Z,56.12
2019-02-26T11:14:39.634Z,56.74
2019-02-26T11:15:38.763Z,56.56
2019-02-26T11:16:39.151Z,57.38
2019-02-26T11:17:38.730Z,56.46
2019-02-26T11:18:39.812Z,57.61
2019-02-26T11:19:41.642Z,57.81
2019-02-26T11:20:38.712Z,57.51
2019-02-26T11:21:38.740Z,58.12
2019-02-26T11:22:41.646Z,57.71
2019-02-26T11:23:40.849Z,57.61
2019-02-26T11:24:38.671Z,57.89
2019-02-26T11:25:38.651Z,56.56
2019-02-26T11:26:40.747Z,56.74
2019-02-26T11:27:40.873Z,55.82
2019-02-26T11:28:40.549Z,55.99
2019-02-26T11:29:40.663Z,55.36
2019-02-26T11:30:38.587Z,55.13
2019-02-26T11:31:39.732Z,54.08
2019-02-26T11:32:40.390Z,53.88
2019-02-26T11:33:38.547Z,53.27
2019-02-26T11:34:38.545Z,53.70
2019-02-26T11:35:39.654Z,55.13
2019-02-26T11:36:40.892Z,55.46
2019-02-26T11:37:38.503Z,55.26
2019-02-26T11:38:40.318Z,55.15
2019-02-26T11:39:38.483Z,55.43
2019-02-26T11:40:38.470Z,55.54
2019-02-26T11:42:39.918Z,54.41
2019-02-26T11:43:38.438Z,50.55
2019-02-26T11:44:38.428Z,48.85
2019-02-26T11:45:40.042Z,48.65
2019-02-26T11:46:38.424Z,49.18
2019-02-26T11:47:39.146Z,49.13
2019-02-26T11:48:38.659Z,47.81
2019-02-26T11:49:39.513Z,47.30
2019-02-26T11:50:38.354Z,48.72
2019-02-26T11:51:41.846Z,47.08
2019-02-26T11:52:38.330Z,47.38
2019-02-26T11:54:40.228Z,44.56
2019-02-26T11:55:38.474Z,44.06
2019-02-26T11:56:42.040Z,44.36
2019-02-26T11:57:39.838Z,44.78
2019-02-26T11:58:38.438Z,45.62
2019-02-26T11:59:40.283Z,45.54
2019-02-26T12:00:41.724Z,47.38
2019-02-26T12:01:39.507Z,46.80
2019-02-26T12:02:39.234Z,47.53
2019-02-26T12:03:38.934Z,48.59
2019-02-26T12:04:38.207Z,50.39
2019-02-26T12:05:39.546Z,51.53
2019-02-26T12:06:38.210Z,52.48
2019-02-26T12:07:38.165Z,53.31
2019-02-26T12:08:40.587Z,53.72
2019-02-26T12:09:40.700Z,53.42
2019-02-26T12:10:40.415Z,53.55
2019-02-26T12:11:38.148Z,53.42
2019-02-26T12:12:38.148Z,53.83
2019-02-26T12:13:39.536Z,54.26
2019-02-26T12:14:42.636Z,53.75
2019-02-26T12:15:42.598Z,55.00
2019-02-26T12:16:38.216Z,54.87
2019-02-26T12:17:38.045Z,54.69
2019-02-26T12:18:39.122Z,54.08
2019-02-26T12:19:39.012Z,54.90
2019-02-26T12:20:40.329Z,55.71
2019-02-26T12:21:40.031Z,54.90
2019-02-26T12:22:41.213Z,55.20
2019-02-26T12:23:39.726Z,55.00
2019-02-26T12:24:38.021Z,55.74
2019-02-26T12:25:37.966Z,55.30
2019-02-26T12:26:38.918Z,55.84
2019-02-26T12:27:38.987Z,55.33
2019-02-26T12:28:40.238Z,55.54
2019-02-26T12:29:39.804Z,56.04
2019-02-26T12:30:41.236Z,56.04
2019-02-26T12:31:39.924Z,56.58
2019-02-26T12:32:38.013Z,56.76
2019-02-26T12:33:37.930Z,56.79
2019-02-26T12:34:38.592Z,56.66
2019-02-26T12:35:38.699Z,56.66
2019-02-26T12:36:37.892Z,57.29
2019-02-26T12:37:50.164Z,57.50
2019-02-26T12:38:38.850Z,57.29
2019-02-26T12:39:37.956Z,57.81
2019-02-26T12:40:40.497Z,57.40
2019-02-26T12:41:41.674Z,57.81
2019-02-26T12:42:38.771Z,57.37
2019-02-26T12:44:42.289Z,56.32
2019-02-26T12:45:40.579Z,56.45
2019-02-26T12:46:38.073Z,56.25
2019-02-26T12:47:40.696Z,56.32
2019-02-26T12:48:40.486Z,56.43
2019-02-26T12:49:41.623Z,56.43
2019-02-26T12:50:40.425Z,56.73
2019-02-26T12:51:37.667Z,56.20
2019-02-26T12:52:37.672Z,55.46
2019-02-26T12:54:40.809Z,54.79
2019-02-26T12:55:38.432Z,53.67
2019-02-26T12:56:37.791Z,54.41